Cooperville, Idaho
Current Conditions -  °F | °C
As of 10:15 PM on Wednesday 28 Jan 2015 (Local Time) from KGIC Reporting Station
Clear Clear  
Wind Chill: 31°   Ceiling: Unl
Heat Index: 31°   Visibility: 10mi
Dew Point: 27°   Wind: 0mph
Humidity: 85%   Direction: NA
Pressure: 30.43"   Gusts: NA
Location:  45.7487°N, 116.14°W
Report Text: KGIC 290615Z AUTO 00000KT 10SM CLR 00/M03 A3043 RMK AO1 T10051027
Loading
Personal Weather Stations






























Interactive Weather Map New forecast layout! Learn more

10-Day Weather Forecast

Advertisements
Track Severe Weather on mobile